Time;durP1;ratioP1;P1;durP2;ratioP2;P2;SDS_P1;SDS_P2;PMS_P1;PMS_P2;Temp;Humidity;BMP_temperature;BMP_pressure;BME280_temperature;BME280_humidity;BME280_pressure;Samples;Min_cycle;Max_cycle;Signal;HPM_P1;HPM_P2
2021/12/02 00:01:52;;;;;;;13.43;9.48;;;;;;;-1.32;64.78;99218.38;1720288;81;20990;-62
2021/12/02 00:04:20;;;;;;;14.50;9.58;;;;;;;-1.23;64.52;99224.58;1708372;81;21057;-60
2021/12/02 00:06:46;;;;;;;15.77;7.97;;;;;;;-1.24;64.37;99215.91;1710191;81;21074;-63
2021/12/02 00:09:12;;;;;;;16.52;9.08;;;;;;;-1.21;63.92;99221.34;1711650;81;20988;-65
2021/12/02 00:11:38;;;;;;;11.12;7.00;;;;;;;-1.13;63.80;99211.48;1707550;80;21601;-63
2021/12/02 00:14:13;;;;;;;10.53;7.15;;;;;;;-1.15;63.30;99205.08;1712984;81;21042;-63
2021/12/02 00:21:54;;;;;;;11.00;6.10;;;;;;;-1.02;62.34;99192.55;1719662;81;21060;-62
2021/12/02 00:24:24;;;;;;;7.77;5.80;;;;;;;-1.02;62.17;99195.16;1709964;80;21010;-61
2021/12/02 00:26:53;;;;;;;8.00;5.87;;;;;;;-1.02;62.13;99195.16;1723617;81;21097;-62
2021/12/02 00:29:21;;;;;;;7.77;6.13;;;;;;;-0.96;62.05;99204.23;1698649;82;20990;-62
2021/12/02 00:31:51;;;;;;;8.87;5.23;;;;;;;-0.96;61.92;99199.46;1710467;81;21526;-63
2021/12/02 00:34:22;;;;;;;8.77;6.37;;;;;;;-0.91;61.85;99201.17;1716814;81;21469;-63
2021/12/02 00:36:48;;;;;;;9.03;5.50;;;;;;;-0.93;61.65;99197.39;1718940;82;21085;-62
2021/12/02 00:39:18;;;;;;;8.68;4.70;;;;;;;-0.89;61.51;99200.55;1705386;81;21096;-61
2021/12/02 00:41:46;;;;;;;7.37;4.60;;;;;;;-0.90;61.84;99185.34;1716692;81;21054;-63
2021/12/02 00:44:14;;;;;;;6.80;4.90;;;;;;;-0.92;61.72;99186.43;1716418;81;21529;-62
2021/12/02 00:46:42;;;;;;;9.93;5.33;;;;;;;-0.89;61.83;99187.47;1708143;82;20990;-63
2021/12/02 00:49:14;;;;;;;6.47;4.33;;;;;;;-0.94;61.73;99173.98;1709967;81;21491;-62
2021/12/02 00:51:47;;;;;;;7.57;5.07;;;;;;;-0.96;61.78;99166.77;1715500;82;21486;-62
2021/12/02 00:54:13;;;;;;;7.37;5.77;;;;;;;-0.96;61.64;99161.07;1721358;82;21102;-63
2021/12/02 00:56:41;;;;;;;5.97;4.90;;;;;;;-0.96;61.75;99164.15;1719512;80;21069;-63
2021/12/02 00:59:08;;;;;;;5.35;4.30;;;;;;;-0.95;61.79;99151.42;1712066;81;20966;-62
2021/12/02 01:01:37;;;;;;;5.73;4.00;;;;;;;-0.90;61.89;99150.52;1714424;82;21061;-62
2021/12/02 01:04:12;;;;;;;4.83;3.57;;;;;;;-0.85;61.71;99146.96;1712583;82;21117;-61
2021/12/02 01:06:40;;;;;;;5.20;3.60;;;;;;;-0.86;61.67;99144.84;1709225;82;21125;-62
2021/12/02 01:09:09;;;;;;;3.93;3.47;;;;;;;-0.80;61.67;99148.67;1713018;82;21545;-63
2021/12/02 01:11:36;;;;;;;7.70;4.57;;;;;;;-0.77;61.75;99148.86;1714282;81;21271;-62
2021/12/02 01:14:03;;;;;;;5.08;3.70;;;;;;;-0.73;61.76;99141.89;1705291;82;21270;-62
2021/12/02 01:16:30;;;;;;;6.77;4.10;;;;;;;-0.70;61.85;99135.53;1718638;81;20999;-63
2021/12/02 01:18:57;;;;;;;5.37;3.40;;;;;;;-0.68;61.83;99127.05;1704981;81;21061;-62
2021/12/02 01:21:27;;;;;;;5.40;3.62;;;;;;;-0.73;62.11;99124.89;1716458;81;21006;-62
2021/12/02 01:24:03;;;;;;;6.03;3.40;;;;;;;-0.73;62.31;99114.42;1705129;81;21101;-62
2021/12/02 01:26:32;;;;;;;3.87;2.87;;;;;;;-0.66;62.29;99101.55;1716388;81;20977;-63
2021/12/02 01:29:01;;;;;;;6.97;4.13;;;;;;;-0.69;62.60;99102.69;1706255;82;21024;-62
2021/12/02 01:31:31;;;;;;;4.37;3.50;;;;;;;-0.70;63.03;99107.56;1695726;82;21490;-63
2021/12/02 01:34:01;;;;;;;5.00;3.77;;;;;;;-0.64;63.01;99101.77;1701682;81;21021;-61
2021/12/02 01:36:35;;;;;;;3.63;3.30;;;;;;;-0.62;63.29;99100.32;1703859;81;21018;-62
2021/12/02 01:39:04;;;;;;;6.40;3.83;;;;;;;-0.66;63.70;99093.70;1714106;81;21034;-63
2021/12/02 01:41:49;;;;;;;5.50;3.97;;;;;;;-0.68;64.09;99099.11;1702134;82;21581;-62
2021/12/02 01:44:19;;;;;;;5.57;4.13;;;;;;;-0.64;64.19;99092.61;1722403;81;20998;-61
2021/12/02 01:46:49;;;;;;;6.30;4.20;;;;;;;-0.64;64.51;99095.23;1713274;81;21001;-62
2021/12/02 01:49:18;;;;;;;6.47;4.43;;;;;;;-0.65;64.79;99100.11;1722329;81;21546;-62
2021/12/02 01:51:50;;;;;;;7.03;4.37;;;;;;;-0.62;64.86;99082.81;1708199;81;21016;-62
2021/12/02 01:54:23;;;;;;;6.50;4.73;;;;;;;-0.61;64.96;99080.52;1711274;81;21022;-63
2021/12/02 01:57:07;;;;;;;5.47;4.50;;;;;;;-0.57;65.03;99080.23;1711254;81;20983;-63
2021/12/02 01:59:38;;;;;;;9.33;5.37;;;;;;;-0.57;65.25;99075.00;1709739;82;21626;-62
2021/12/02 02:02:09;;;;;;;10.70;5.67;;;;;;;-0.55;65.41;99070.44;1710943;82;21097;-62
2021/12/02 02:04:36;;;;;;;5.43;4.80;;;;;;;-0.59;65.67;99075.95;1712892;81;21058;-62
2021/12/02 02:07:10;;;;;;;6.73;5.00;;;;;;;-0.49;65.69;99075.08;1710560;82;21033;-62
2021/12/02 02:09:36;;;;;;;8.60;6.43;;;;;;;-0.48;65.69;99067.08;1709681;81;21054;-62
2021/12/02 02:12:06;;;;;;;6.15;5.25;;;;;;;-0.48;65.70;99070.19;1719317;81;21015;-62
2021/12/02 02:14:33;;;;;;;7.33;5.60;;;;;;;-0.43;65.72;99064.84;1712187;82;21018;-62
2021/12/02 02:17:09;;;;;;;6.70;5.30;;;;;;;-0.38;65.73;99063.08;1720386;81;21289;-62
2021/12/02 02:19:31;;;;;;;6.70;5.43;;;;;;;-0.32;65.62;99066.89;1719524;82;21038;-63
2021/12/02 02:21:59;;;;;;;5.97;4.60;;;;;;;-0.28;65.56;99057.30;1715783;81;21054;-63
2021/12/02 02:24:27;;;;;;;6.87;4.70;;;;;;;-0.24;65.48;99067.80;1714944;81;21656;-62
2021/12/02 02:26:53;;;;;;;10.07;5.20;;;;;;;-0.28;65.71;99070.39;1713271;82;21050;-62
2021/12/02 02:29:20;;;;;;;6.30;5.45;;;;;;;-0.26;65.83;99069.75;1710352;82;21515;-63
2021/12/02 02:31:48;;;;;;;8.38;6.12;;;;;;;-0.22;65.85;99067.16;1702729;82;21060;-63
2021/12/02 02:34:14;;;;;;;7.00;5.27;;;;;;;-0.23;66.06;99066.84;1704506;82;21518;-63
2021/12/02 02:36:52;;;;;;;8.27;5.63;;;;;;;-0.21;66.26;99069.28;1698635;82;21102;-61
2021/12/02 02:39:21;;;;;;;8.75;6.87;;;;;;;-0.20;66.58;99074.88;1714271;82;21099;-62
2021/12/02 02:41:54;;;;;;;10.07;5.93;;;;;;;-0.18;66.66;99065.56;1714278;82;21352;-61
2021/12/02 02:44:15;;;;;;;7.73;5.50;;;;;;;-0.16;66.82;99059.69;1713247;78;21054;-62
2021/12/02 02:46:42;;;;;;;7.30;5.20;;;;;;;-0.10;66.77;99058.58;1715091;82;21057;-61
2021/12/02 02:49:12;;;;;;;6.90;5.90;;;;;;;-0.08;66.99;99056.63;1720219;82;21141;-62
2021/12/02 02:51:40;;;;;;;9.10;5.63;;;;;;;-0.06;66.99;99045.54;1717033;82;21013;-62
2021/12/02 02:54:10;;;;;;;8.97;6.60;;;;;;;-0.09;67.35;99035.35;1716825;81;21042;-62
2021/12/02 02:56:51;;;;;;;8.53;5.67;;;;;;;-0.06;67.47;99046.00;1722746;79;21018;-63
2021/12/02 02:59:36;;;;;;;8.97;6.40;;;;;;;-0.05;67.70;99038.00;1714158;82;21589;-62
2021/12/02 03:02:12;;;;;;;7.63;5.93;;;;;;;0.01;67.58;99042.30;1705126;82;21002;-61
2021/12/02 03:14:51;;;;;;;11.50;7.43;;;;;;;0.03;68.31;99035.11;1709629;81;21212;-61
2021/12/02 03:17:03;;;;;;;8.53;6.00;;;;;;;0.04;68.31;99017.94;1709992;81;21058;-61
2021/12/02 03:19:31;;;;;;;8.20;6.07;;;;;;;0.04;68.35;99005.30;1705135;82;21082;-61
2021/12/02 03:21:58;;;;;;;7.90;6.03;;;;;;;0.09;68.37;99020.08;1705246;82;21046;-63
2021/12/02 03:24:25;;;;;;;9.17;6.63;;;;;;;0.10;68.23;99019.12;1701647;82;21037;-61
2021/12/02 03:26:52;;;;;;;9.30;7.03;;;;;;;0.08;68.46;99013.21;1723778;81;21117;-62
2021/12/02 03:29:19;;;;;;;7.77;6.77;;;;;;;0.12;68.34;99019.29;1719960;82;21074;-62
2021/12/02 03:31:46;;;;;;;6.85;5.90;;;;;;;0.08;68.56;99004.86;1709037;81;21002;-63
2021/12/02 03:34:13;;;;;;;7.57;5.77;;;;;;;0.07;68.43;99005.81;1719910;81;21846;-62
2021/12/02 03:36:39;;;;;;;12.25;6.80;;;;;;;0.03;68.39;99004.48;1716857;82;21055;-63
2021/12/02 03:39:10;;;;;;;8.27;6.30;;;;;;;0.06;68.47;99001.57;1714199;81;21151;-62
2021/12/02 03:41:39;;;;;;;7.67;5.07;;;;;;;0.09;68.26;98995.19;1710531;82;21006;-63
2021/12/02 03:44:07;;;;;;;8.23;6.67;;;;;;;0.07;68.21;98983.55;1717364;81;20974;-63
2021/12/02 03:46:35;;;;;;;8.27;6.43;;;;;;;0.09;68.11;98997.81;1685997;83;21094;-63
2021/12/02 03:49:01;;;;;;;7.60;6.03;;;;;;;0.06;68.28;98969.28;1720629;82;21094;-62
2021/12/02 03:51:28;;;;;;;10.10;6.80;;;;;;;0.10;68.11;98978.01;1715610;81;21050;-62
2021/12/02 03:53:55;;;;;;;11.23;6.30;;;;;;;0.07;68.24;98972.25;1716251;81;21069;-63
2021/12/02 03:56:21;;;;;;;9.58;5.87;;;;;;;0.10;68.12;98970.16;1718811;81;21014;-62
2021/12/02 03:58:50;;;;;;;9.03;6.83;;;;;;;0.11;68.16;98952.13;1722753;82;21054;-62
2021/12/02 04:01:17;;;;;;;8.17;5.57;;;;;;;0.11;68.08;98952.62;1721197;81;21040;-62
2021/12/02 04:03:44;;;;;;;8.77;6.50;;;;;;;0.09;68.08;98955.89;1719048;81;21088;-62
2021/12/02 04:06:14;;;;;;;7.83;6.30;;;;;;;0.15;68.11;98956.57;1722560;82;21022;-63
2021/12/02 04:08:44;;;;;;;7.73;6.90;;;;;;;0.19;67.89;98952.19;1713047;82;21014;-62
2021/12/02 04:13:58;;;;;;;8.10;6.13;;;;;;;0.23;67.82;98944.00;1703970;82;21014;-62
2021/12/02 04:16:17;;;;;;;7.53;6.20;;;;;;;0.21;67.84;98935.47;1716891;82;21068;-62
2021/12/02 04:18:44;;;;;;;7.50;6.67;;;;;;;0.22;68.02;98938.44;1717089;81;22162;-62
2021/12/02 04:21:10;;;;;;;;;;;;;;;0.26;67.84;98930.59;1709303;82;21071;-62
2021/12/02 04:23:37;;;;;;;8.17;6.27;;;;;;;0.24;67.92;98936.48;1705003;81;20133;-62
2021/12/02 04:26:04;;;;;;;7.43;6.67;;;;;;;0.25;68.08;98937.64;1713257;82;21052;-64
2021/12/02 04:28:31;;;;;;;;;;;;;;;0.30;67.94;98930.14;1716904;81;21038;-62
2021/12/02 04:30:58;;;;;;;8.08;5.78;;;;;;;0.34;67.88;98932.77;1710364;82;20235;-63
2021/12/02 04:33:24;;;;;;;8.43;6.40;;;;;;;0.30;68.18;98940.63;1719626;79;21616;-63
2021/12/02 04:35:52;;;;;;;6.95;5.83;;;;;;;0.34;67.86;98934.55;1711698;82;21121;-62
2021/12/02 04:38:20;;;;;;;9.90;7.43;;;;;;;0.39;67.89;98920.49;1718909;81;21062;-64
2021/12/02 04:40:46;;;;;;;10.00;7.57;;;;;;;0.46;67.69;98912.83;1706659;82;21002;-62
2021/12/02 04:43:12;;;;;;;12.73;6.97;;;;;;;0.45;67.75;98918.55;1713070;82;21081;-62
2021/12/02 04:45:39;;;;;;;;;;;;;;;0.51;67.61;98918.41;1720396;80;20958;-63
2021/12/02 04:48:06;;;;;;;8.43;7.40;;;;;;;0.52;67.56;98912.19;1716236;81;20099;-63
2021/12/02 04:50:33;;;;;;;9.03;7.27;;;;;;;0.51;67.61;98900.89;1699372;81;21026;-61
2021/12/02 04:52:59;;;;;;;9.77;8.40;;;;;;;0.56;67.38;98898.59;1709418;81;20971;-62
2021/12/02 04:55:26;;;;;;;9.73;6.90;;;;;;;0.62;67.27;98889.27;1738592;81;21025;-63
2021/12/02 04:57:53;;;;;;;10.68;8.13;;;;;;;0.66;67.12;98885.84;1728296;81;20990;-63
2021/12/02 05:00:21;;;;;;;11.83;8.33;;;;;;;0.68;67.09;98897.83;1715249;81;20971;-63
2021/12/02 05:02:47;;;;;;;10.40;7.93;;;;;;;0.75;67.07;98891.44;1711530;81;21540;-63
2021/12/02 05:05:15;;;;;;;9.10;7.40;;;;;;;0.78;67.01;98901.61;1715956;81;21101;-63
2021/12/02 05:07:41;;;;;;;11.53;8.93;;;;;;;0.84;66.88;98890.97;1714148;81;21133;-62
2021/12/02 05:10:09;;;;;;;12.10;9.70;;;;;;;0.86;66.85;98898.19;1662832;83;21066;-63
2021/12/02 05:12:36;;;;;;;10.03;8.57;;;;;;;0.91;66.79;98888.85;1720840;81;21097;-62
2021/12/02 05:15:05;;;;;;;10.48;8.43;;;;;;;0.89;66.87;98872.45;1719804;81;20964;-63
2021/12/02 05:17:33;;;;;;;11.23;9.13;;;;;;;0.87;66.93;98869.17;1716718;81;21081;-63
2021/12/02 05:19:59;;;;;;;13.98;10.00;;;;;;;0.92;66.85;98865.58;1717014;82;21554;-63
2021/12/02 05:22:25;;;;;;;12.03;9.43;;;;;;;0.94;66.76;98872.80;1705988;81;21166;-63
2021/12/02 05:24:51;;;;;;;13.62;9.08;;;;;;;0.98;66.83;98873.30;1721596;82;21050;-64
2021/12/02 05:27:17;;;;;;;10.90;8.95;;;;;;;1.01;66.89;98880.82;1723976;81;21002;-63
2021/12/02 05:29:44;;;;;;;11.65;8.93;;;;;;;1.05;66.94;98868.20;1724725;81;21044;-62
2021/12/02 05:32:10;;;;;;;11.15;7.92;;;;;;;1.02;67.01;98858.02;1689010;83;21077;-62
2021/12/02 05:34:35;;;;;;;11.15;9.05;;;;;;;1.05;66.94;98866.39;1712612;81;21062;-63
2021/12/02 05:37:02;;;;;;;10.15;8.63;;;;;;;1.10;66.92;98883.78;1724702;81;20998;-63
2021/12/02 05:39:28;;;;;;;13.35;10.23;;;;;;;1.10;66.91;98875.91;1704024;82;21006;-63
2021/12/02 05:41:54;;;;;;;12.88;8.78;;;;;;;1.12;67.07;98894.13;1706061;81;20994;-63
2021/12/02 05:44:22;;;;;;;10.68;9.20;;;;;;;1.15;66.96;98879.38;1718015;81;21458;-63
2021/12/02 05:46:49;;;;;;;11.30;9.70;;;;;;;1.18;66.95;98869.84;1712273;81;21118;-64
2021/12/02 05:49:15;;;;;;;12.93;9.80;;;;;;;1.21;67.01;98872.16;1704901;82;21018;-62
2021/12/02 05:51:44;;;;;;;13.67;9.47;;;;;;;1.22;67.02;98881.65;1701658;82;20994;-63
2021/12/02 05:54:12;;;;;;;11.73;8.57;;;;;;;1.26;67.05;98880.83;1713172;81;21026;-64
2021/12/02 05:56:38;;;;;;;13.80;9.67;;;;;;;1.26;67.19;98888.70;1713620;78;21545;-63
2021/12/02 05:59:04;;;;;;;19.65;10.85;;;;;;;1.23;67.25;98880.68;1709046;81;21450;-64
2021/12/02 06:01:30;;;;;;;11.85;9.83;;;;;;;1.27;67.32;98900.36;1712779;81;21100;-63
2021/12/02 06:03:57;;;;;;;15.75;11.22;;;;;;;1.29;67.37;98894.45;1724810;81;21033;-64
2021/12/02 06:06:25;;;;;;;12.78;9.03;;;;;;;1.32;67.35;98895.95;1708789;82;21090;-65
2021/12/02 06:08:53;;;;;;;12.83;9.20;;;;;;;1.38;67.27;98900.53;1711625;82;21545;-65
2021/12/02 06:11:20;;;;;;;14.73;11.17;;;;;;;1.39;67.19;98891.66;1719182;78;21050;-64
2021/12/02 06:13:47;;;;;;;12.15;10.08;;;;;;;1.44;67.24;98885.42;1710431;82;21110;-64
2021/12/02 06:16:15;;;;;;;11.03;9.03;;;;;;;1.51;67.18;98890.85;1712940;82;21011;-65
2021/12/02 06:18:43;;;;;;;16.03;11.53;;;;;;;1.47;67.26;98895.61;1710974;82;21022;-64
2021/12/02 06:21:09;;;;;;;13.83;10.73;;;;;;;1.52;67.17;98900.36;1718723;81;21549;-64
2021/12/02 06:23:36;;;;;;;13.78;11.05;;;;;;;1.54;67.22;98882.63;1713957;79;21525;-65
2021/12/02 06:26:02;;;;;;;10.23;8.03;;;;;;;1.57;67.20;98877.05;1723288;81;20987;-65
2021/12/02 06:28:29;;;;;;;11.95;9.83;;;;;;;1.52;67.39;98879.34;1718368;82;21042;-66
2021/12/02 06:30:56;;;;;;;19.33;10.80;;;;;;;1.60;67.24;98876.73;1706180;82;21060;-67
2021/12/02 06:33:22;;;;;;;11.08;9.80;;;;;;;1.65;67.15;98879.66;1709665;81;21065;-66
2021/12/02 06:35:48;;;;;;;12.18;9.83;;;;;;;1.70;67.09;98883.92;1700662;81;21554;-65
2021/12/02 06:38:14;;;;;;;13.93;10.25;;;;;;;1.74;67.04;98883.91;1721327;81;21034;-65
2021/12/02 06:40:42;;;;;;;13.58;9.93;;;;;;;1.83;67.01;98878.63;1711874;82;21089;-64
2021/12/02 06:43:09;;;;;;;11.70;10.50;;;;;;;1.81;66.99;98877.98;1708086;81;21581;-66
2021/12/02 06:45:35;;;;;;;;;;;;;;;1.82;67.07;98877.00;1721889;81;21129;-66
2021/12/02 06:48:01;;;;;;;15.60;10.60;;;;;;;1.81;67.10;98881.45;1717006;82;20232;-66
2021/12/02 06:50:30;;;;;;;14.18;10.32;;;;;;;1.78;67.33;98888.84;1711740;82;20978;-66
2021/12/02 06:52:56;;;;;;;15.37;10.63;;;;;;;1.82;67.33;98880.95;1713711;81;21002;-66
2021/12/02 06:55:23;;;;;;;14.83;10.90;;;;;;;1.87;67.24;98881.27;1714890;79;21148;-66
2021/12/02 06:57:52;;;;;;;13.93;10.57;;;;;;;1.93;67.17;98869.58;1712594;81;21479;-64
2021/12/02 07:00:21;;;;;;;13.00;10.27;;;;;;;1.95;67.15;98874.17;1712224;81;21036;-66
2021/12/02 07:02:49;;;;;;;13.37;10.03;;;;;;;2.00;67.13;98866.27;1713496;81;21482;-65
2021/12/02 07:05:17;;;;;;;15.97;11.07;;;;;;;2.05;67.03;98879.23;1715917;81;21493;-66
2021/12/02 07:07:46;;;;;;;15.57;11.40;;;;;;;2.10;66.91;98867.72;1720860;81;21608;-65
2021/12/02 07:10:18;;;;;;;13.13;9.53;;;;;;;2.13;66.87;98873.16;1720292;81;20978;-65
2021/12/02 07:12:49;;;;;;;12.40;10.33;;;;;;;2.15;66.82;98859.34;1702065;81;21085;-65
2021/12/02 07:15:20;;;;;;;12.73;9.63;;;;;;;2.20;66.81;98871.95;1715226;81;21038;-65
2021/12/02 07:17:56;;;;;;;11.87;9.43;;;;;;;2.23;66.83;98872.44;1712535;81;21335;-64
2021/12/02 07:20:19;;;;;;;13.27;9.47;;;;;;;2.26;66.95;98869.48;1712347;82;20983;-65
2021/12/02 07:22:46;;;;;;;10.82;8.95;;;;;;;2.28;66.67;98867.50;1706419;82;21533;-65
2021/12/02 07:25:12;;;;;;;11.50;8.93;;;;;;;2.31;66.74;98871.58;1710836;82;21038;-66
2021/12/02 07:27:38;;;;;;;11.97;9.40;;;;;;;2.34;66.72;98872.06;1710311;81;21003;-66
2021/12/02 07:30:07;;;;;;;10.40;8.90;;;;;;;2.37;66.67;98866.95;1703119;82;21110;-65
2021/12/02 07:32:40;;;;;;;13.37;9.17;;;;;;;2.34;66.79;98870.75;1724014;82;21018;-66
2021/12/02 07:35:14;;;;;;;12.60;9.90;;;;;;;2.41;66.81;98868.74;1716004;81;21025;-67
2021/12/02 07:37:47;;;;;;;11.43;9.67;;;;;;;2.45;66.83;98868.72;1715596;82;21097;-66
2021/12/02 07:40:16;;;;;;;13.03;9.33;;;;;;;2.48;66.68;98871.83;1717570;82;21052;-65
2021/12/02 07:42:49;;;;;;;12.20;8.60;;;;;;;2.52;66.64;98873.14;1719012;82;21121;-66
2021/12/02 07:45:16;;;;;;;10.23;9.13;;;;;;;2.61;66.49;98877.04;1720479;81;21054;-66
2021/12/02 07:47:43;;;;;;;13.10;8.80;;;;;;;2.66;66.29;98873.41;1717806;82;21021;-66
2021/12/02 07:50:13;;;;;;;13.80;9.55;;;;;;;2.52;66.40;98846.00;1720832;81;20997;-66
2021/12/02 07:52:45;;;;;;;11.97;9.43;;;;;;;2.73;66.32;98877.80;1722589;82;20991;-65
2021/12/02 07:55:15;;;;;;;10.07;9.07;;;;;;;2.77;66.20;98878.27;1722494;81;21033;-65
2021/12/02 07:57:44;;;;;;;12.83;9.97;;;;;;;2.76;66.27;98875.80;1679866;83;21034;-65
2021/12/02 08:00:14;;;;;;;11.57;8.97;;;;;;;2.77;66.23;98879.59;1717294;81;21075;-66
2021/12/02 08:02:46;;;;;;;14.50;10.17;;;;;;;2.75;66.52;98878.94;1720621;81;21537;-67
2021/12/02 08:05:13;;;;;;;11.17;8.93;;;;;;;2.78;66.40;98882.52;1703943;82;20963;-67
2021/12/02 08:07:41;;;;;;;10.37;9.23;;;;;;;2.78;66.35;98881.20;1715503;81;21510;-67
2021/12/02 08:10:11;;;;;;;12.90;9.93;;;;;;;2.84;66.36;98894.97;1716490;82;21041;-66
2021/12/02 08:12:45;;;;;;;10.33;9.17;;;;;;;2.88;66.43;98898.08;1717104;78;21042;-66
2021/12/02 08:15:09;;;;;;;13.93;9.30;;;;;;;2.90;66.48;98895.62;1714438;82;20967;-67
2021/12/02 08:20:43;;;;;;;8.80;7.37;;;;;;;2.97;66.62;98882.56;1853188;76;22857;-66
2021/12/02 08:23:09;;;;;;;12.63;8.60;;;;;;;2.97;66.59;98881.75;1816366;75;21506;-64
2021/12/02 08:25:35;;;;;;;10.55;9.33;;;;;;;2.64;66.53;98830.16;1776148;79;21618;-66
2021/12/02 08:28:02;;;;;;;12.60;8.78;;;;;;;3.02;66.55;98888.13;1779338;79;21039;-65
2021/12/02 08:30:34;;;;;;;12.50;8.90;;;;;;;3.04;66.59;98893.23;1778163;79;21031;-66
2021/12/02 08:33:01;;;;;;;11.40;8.40;;;;;;;3.08;66.70;98892.69;1778397;79;21030;-65
2021/12/02 08:35:28;;;;;;;10.60;8.87;;;;;;;3.09;66.85;98900.11;1779064;79;21008;-65
2021/12/02 08:38:01;;;;;;;10.63;8.75;;;;;;;3.10;66.86;98880.67;1773850;79;21642;-66
2021/12/02 08:40:32;;;;;;;12.70;9.03;;;;;;;3.12;67.03;98883.95;1775506;79;21002;-66
2021/12/02 08:43:01;;;;;;;15.70;10.13;;;;;;;3.19;67.13;98883.56;1784675;79;21000;-66
2021/12/02 08:45:28;;;;;;;14.37;9.57;;;;;;;3.26;66.91;98876.61;1749685;79;20969;-67
2021/12/02 08:47:56;;;;;;;14.73;9.00;;;;;;;3.36;66.71;98863.19;1743660;81;20996;-67
2021/12/02 08:50:23;;;;;;;13.77;10.13;;;;;;;3.40;66.53;98865.78;1746819;81;21032;-66
2021/12/02 08:52:52;;;;;;;9.00;8.03;;;;;;;3.38;66.47;98858.55;1746565;81;21016;-66
2021/12/02 08:55:22;;;;;;;11.07;8.67;;;;;;;3.42;66.40;98866.42;1743988;81;21042;-67
2021/12/02 08:57:50;;;;;;;20.70;9.43;;;;;;;3.48;66.34;98868.84;1747362;81;21529;-68
2021/12/02 09:00:21;;;;;;;12.60;9.53;;;;;;;3.49;66.44;98868.66;1747797;78;21062;-67
2021/12/02 09:02:47;;;;;;;11.50;9.07;;;;;;;3.51;66.55;98864.54;1832197;77;21034;-66
2021/12/02 09:05:14;;;;;;;10.88;9.65;;;;;;;3.47;66.81;98864.08;1827744;77;20979;-67
2021/12/02 09:07:41;;;;;;;12.63;9.60;;;;;;;3.50;66.90;98853.67;1819779;77;21021;-67
2021/12/02 09:10:09;;;;;;;12.40;8.20;;;;;;;3.54;66.90;98856.26;1831378;77;21443;-68
2021/12/02 09:12:36;;;;;;;10.60;9.50;;;;;;;3.56;67.10;98849.02;1815643;77;21026;-67
2021/12/02 09:15:05;;;;;;;14.20;8.43;;;;;;;3.63;67.03;98850.42;1829155;77;20997;-67
2021/12/02 09:17:32;;;;;;;9.83;8.23;;;;;;;3.65;67.06;98847.91;1832133;77;21126;-67
2021/12/02 09:19:58;;;;;;;14.63;8.95;;;;;;;3.59;67.10;98848.64;1829891;77;21024;-66
2021/12/02 09:22:24;;;;;;;13.20;8.28;;;;;;;3.60;67.23;98845.02;1822125;76;21018;-66
2021/12/02 09:24:50;;;;;;;10.70;9.20;;;;;;;3.59;67.33;98846.01;1827246;77;21029;-66
2021/12/02 09:27:16;;;;;;;14.80;10.82;;;;;;;3.58;67.55;98843.55;1832260;77;21486;-66
2021/12/02 09:29:43;;;;;;;;;;;;;;;3.59;67.56;98849.96;1831982;77;21491;-66
2021/12/02 09:32:11;;;;;;;9.97;8.60;;;;;;;3.63;67.49;98839.38;1826443;77;20555;-67
2021/12/02 09:34:38;;;;;;;11.80;8.53;;;;;;;3.70;67.47;98844.76;1782944;78;21031;-66
2021/12/02 09:37:04;;;;;;;15.38;9.98;;;;;;;3.71;67.65;98833.20;1760830;80;20971;-66
2021/12/02 09:39:32;;;;;;;11.43;9.28;;;;;;;3.74;67.66;98840.76;1758020;80;21531;-69
2021/12/02 09:41:59;;;;;;;12.67;9.47;;;;;;;3.78;67.78;98842.53;1761879;80;21032;-68
2021/12/02 09:44:26;;;;;;;15.73;8.67;;;;;;;3.77;67.89;98835.13;1761389;80;21132;-69
2021/12/02 09:46:53;;;;;;;13.45;8.33;;;;;;;3.79;67.93;98837.59;1763458;80;20977;-68
2021/12/02 09:49:20;;;;;;;10.70;8.63;;;;;;;3.81;68.05;98829.00;1762578;80;20985;-67
2021/12/02 09:54:25;;;;;;;10.37;8.23;;;;;;;3.99;67.87;98819.39;1764805;80;21036;-67
2021/12/02 09:56:52;;;;;;;10.40;8.87;;;;;;;4.00;67.90;98820.53;1752032;80;21504;-66
2021/12/02 09:59:34;;;;;;;14.37;9.93;;;;;;;4.04;68.00;98820.98;1746175;81;20973;-67
2021/12/02 10:02:08;;;;;;;10.00;8.87;;;;;;;4.07;68.05;98828.55;1776220;79;21019;-68
2021/12/02 10:04:30;;;;;;;13.10;9.90;;;;;;;4.10;68.09;98824.20;1771495;79;21059;-68
2021/12/02 10:07:18;;;;;;;14.23;9.80;;;;;;;4.17;67.97;98825.11;1773195;79;20996;-68
2021/12/02 10:09:57;;;;;;;11.67;8.77;;;;;;;4.24;67.83;98815.98;1770619;79;21020;-67
2021/12/02 10:12:22;;;;;;;10.33;8.60;;;;;;;4.39;67.65;98817.23;1784562;79;20977;-68
2021/12/02 10:14:56;;;;;;;12.07;9.83;;;;;;;4.51;67.47;98815.77;1791585;78;21063;-69
2021/12/02 10:20:32;;;;;;;14.80;9.53;;;;;;;4.53;67.29;98815.58;1785882;78;21045;-66
2021/12/02 10:23:25;;;;;;;14.77;10.83;;;;;;;4.54;67.25;98818.52;1777594;79;21456;-66
2021/12/02 10:25:58;;;;;;;15.93;10.87;;;;;;;4.56;67.39;98819.15;1753761;80;21079;-67
2021/12/02 10:28:28;;;;;;;12.17;9.57;;;;;;;4.54;67.36;98810.60;1763442;80;20988;-68
2021/12/02 10:31:00;;;;;;;18.90;10.73;;;;;;;4.56;67.31;98814.70;1744087;80;21005;-67
2021/12/02 10:33:43;;;;;;;11.63;8.93;;;;;;;4.58;67.37;98806.61;1762335;80;21016;-67
2021/12/02 10:36:27;;;;;;;14.47;10.27;;;;;;;4.68;67.31;98809.75;1761739;80;21095;-67
2021/12/02 10:38:59;;;;;;;17.23;10.00;;;;;;;4.74;67.21;98801.58;1759811;80;21013;-66
2021/12/02 10:41:29;;;;;;;14.70;9.77;;;;;;;4.73;67.14;98806.53;1756113;80;21104;-66
2021/12/02 10:44:05;;;;;;;13.70;9.30;;;;;;;4.74;67.35;98805.55;1748776;80;20992;-67
2021/12/02 10:46:32;;;;;;;14.50;10.20;;;;;;;4.80;67.25;98808.73;1735622;80;21870;-67
2021/12/02 10:48:59;;;;;;;12.40;10.80;;;;;;;4.85;67.10;98811.13;1762580;80;21033;-66
2021/12/02 10:51:46;;;;;;;15.03;11.25;;;;;;;4.88;67.08;98812.09;1761705;80;21001;-66
2021/12/02 10:54:20;;;;;;;16.77;11.30;;;;;;;4.92;66.86;98807.75;1763338;80;20985;-69
2021/12/02 10:56:51;;;;;;;10.77;8.93;;;;;;;4.96;66.84;98810.33;1740203;80;20993;-66
2021/12/02 10:59:41;;;;;;;14.30;10.13;;;;;;;4.99;66.81;98799.36;1751984;80;21024;-68
2021/12/02 11:02:34;;;;;;;14.60;10.93;;;;;;;5.08;66.44;98799.55;1746591;81;21009;-67
2021/12/02 11:05:09;;;;;;;11.90;10.30;;;;;;;5.10;66.41;98798.85;1754543;80;21159;-64
2021/12/02 11:07:42;;;;;;;15.27;10.57;;;;;;;5.02;66.48;98783.16;1748017;80;21528;-64
2021/12/02 11:10:13;;;;;;;19.97;11.47;;;;;;;4.98;66.68;98785.87;1756964;80;21488;-70
2021/12/02 11:12:45;;;;;;;18.80;12.83;;;;;;;4.94;66.87;98789.90;1752711;81;20914;-69
2021/12/02 11:15:22;;;;;;;16.73;11.77;;;;;;;4.92;66.99;98787.44;1761928;80;20937;-64
2021/12/02 11:18:05;;;;;;;16.20;10.72;;;;;;;4.93;67.12;98783.78;1759200;80;20960;-65
2021/12/02 11:20:39;;;;;;;15.43;10.97;;;;;;;4.97;66.88;98766.57;1760390;80;21556;-66
2021/12/02 11:23:30;;;;;;;14.73;9.93;;;;;;;4.95;66.89;98773.84;1758015;80;21017;-66
2021/12/02 11:26:10;;;;;;;15.83;10.53;;;;;;;4.99;66.89;98771.16;1757778;80;21571;-65
2021/12/02 11:28:40;;;;;;;13.60;10.83;;;;;;;4.96;66.90;98772.84;1758590;80;21030;-64
2021/12/02 11:31:13;;;;;;;16.20;11.93;;;;;;;4.92;67.08;98782.67;1767185;80;21081;-64
2021/12/02 11:33:41;;;;;;;17.40;11.87;;;;;;;4.89;67.34;98766.69;1768960;79;20977;-65
2021/12/02 11:36:19;;;;;;;20.40;12.93;;;;;;;4.83;67.46;98773.55;1791075;78;21094;-65
2021/12/02 11:38:45;;;;;;;;;;;;;;;4.77;67.78;98770.34;1796414;78;21579;-64
2021/12/02 11:41:13;;;;;;;19.03;10.80;;;;;;;4.73;67.85;98765.63;1780996;78;20493;-64
2021/12/02 11:43:40;;;;;;;12.53;11.17;;;;;;;4.75;67.89;98768.91;1795845;78;21090;-65
2021/12/02 11:46:10;;;;;;;14.93;11.15;;;;;;;4.87;67.76;98760.27;1794993;78;21016;-65
2021/12/02 11:48:42;;;;;;;22.73;11.57;;;;;;;4.99;67.57;98769.84;1794852;78;20981;-64
2021/12/02 11:51:16;;;;;;;18.03;12.07;;;;;;;5.04;67.39;98769.25;1801076;78;21059;-65
2021/12/02 11:53:43;;;;;;;15.80;12.53;;;;;;;5.03;67.30;98772.92;1792542;78;20999;-64
2021/12/02 11:56:17;;;;;;;16.00;11.70;;;;;;;4.98;67.51;98774.80;1769578;78;21040;-65
2021/12/02 11:58:44;;;;;;;21.37;13.40;;;;;;;4.93;67.66;98771.09;1736358;81;21149;-64
2021/12/02 12:01:18;;;;;;;16.23;11.50;;;;;;;4.92;67.72;98757.59;1732392;81;21077;-66
2021/12/02 12:04:09;;;;;;;24.53;14.07;;;;;;;4.93;67.83;98763.16;1693578;83;21794;-64
2021/12/02 12:06:41;;;;;;;16.37;11.17;;;;;;;4.94;67.91;98762.17;1730099;81;21596;-64
2021/12/02 12:09:17;;;;;;;16.73;11.90;;;;;;;4.99;67.83;98748.71;1731037;81;20985;-64
2021/12/02 12:11:47;;;;;;;14.28;11.60;;;;;;;5.03;67.81;98753.11;1727118;80;21028;-64